sensor_id;sensor_type;location;lat;lon;timestamp;P1;durP1;ratioP1;P2;durP2;ratioP2
31450;SDS011;18070;52.474;13.304;2023-12-29T00:01:54;19.40;;;18.15;;
31450;SDS011;18070;52.474;13.304;2023-12-29T00:04:20;18.95;;;17.73;;
31450;SDS011;18070;52.474;13.304;2023-12-29T00:06:46;19.67;;;18.48;;
31450;SDS011;18070;52.474;13.304;2023-12-29T00:09:14;19.45;;;18.33;;
31450;SDS011;18070;52.474;13.304;2023-12-29T00:11:40;21.10;;;19.92;;
31450;SDS011;18070;52.474;13.304;2023-12-29T00:14:06;22.73;;;21.25;;
31450;SDS011;18070;52.474;13.304;2023-12-29T00:16:32;18.98;;;17.92;;
31450;SDS011;18070;52.474;13.304;2023-12-29T00:18:58;20.88;;;19.58;;
31450;SDS011;18070;52.474;13.304;2023-12-29T00:21:24;20.00;;;18.95;;
31450;SDS011;18070;52.474;13.304;2023-12-29T00:23:50;22.42;;;21.08;;
31450;SDS011;18070;52.474;13.304;2023-12-29T00:26:16;21.08;;;19.77;;
31450;SDS011;18070;52.474;13.304;2023-12-29T00:28:43;21.40;;;20.05;;
31450;SDS011;18070;52.474;13.304;2023-12-29T00:31:13;18.00;;;16.40;;
31450;SDS011;18070;52.474;13.304;2023-12-29T00:33:40;20.80;;;19.50;;
31450;SDS011;18070;52.474;13.304;2023-12-29T00:36:06;18.60;;;17.35;;
31450;SDS011;18070;52.474;13.304;2023-12-29T00:38:32;18.25;;;16.95;;
31450;SDS011;18070;52.474;13.304;2023-12-29T00:40:58;20.48;;;19.17;;
31450;SDS011;18070;52.474;13.304;2023-12-29T00:43:24;20.83;;;19.63;;
31450;SDS011;18070;52.474;13.304;2023-12-29T00:45:50;19.35;;;18.20;;
31450;SDS011;18070;52.474;13.304;2023-12-29T00:48:16;17.33;;;16.02;;
31450;SDS011;18070;52.474;13.304;2023-12-29T00:50:42;16.00;;;14.70;;
31450;SDS011;18070;52.474;13.304;2023-12-29T00:53:08;15.35;;;14.25;;
31450;SDS011;18070;52.474;13.304;2023-12-29T00:55:34;16.45;;;15.23;;
31450;SDS011;18070;52.474;13.304;2023-12-29T00:58:00;14.48;;;13.18;;
31450;SDS011;18070;52.474;13.304;2023-12-29T01:00:26;12.52;;;11.43;;
31450;SDS011;18070;52.474;13.304;2023-12-29T01:02:52;12.00;;;11.05;;
31450;SDS011;18070;52.474;13.304;2023-12-29T01:05:18;11.50;;;10.70;;
31450;SDS011;18070;52.474;13.304;2023-12-29T01:07:44;13.38;;;12.07;;
31450;SDS011;18070;52.474;13.304;2023-12-29T01:10:10;13.98;;;12.65;;
31450;SDS011;18070;52.474;13.304;2023-12-29T01:12:36;11.93;;;11.10;;
31450;SDS011;18070;52.474;13.304;2023-12-29T01:15:02;11.80;;;10.95;;
31450;SDS011;18070;52.474;13.304;2023-12-29T01:17:29;10.90;;;9.85;;
31450;SDS011;18070;52.474;13.304;2023-12-29T01:19:55;14.77;;;13.68;;
31450;SDS011;18070;52.474;13.304;2023-12-29T01:22:21;13.05;;;11.82;;
31450;SDS011;18070;52.474;13.304;2023-12-29T01:24:47;13.23;;;12.02;;
31450;SDS011;18070;52.474;13.304;2023-12-29T01:27:13;10.77;;;10.05;;
31450;SDS011;18070;52.474;13.304;2023-12-29T01:29:39;10.95;;;10.00;;
31450;SDS011;18070;52.474;13.304;2023-12-29T01:32:05;13.15;;;11.50;;
31450;SDS011;18070;52.474;13.304;2023-12-29T01:34:33;14.75;;;13.75;;
31450;SDS011;18070;52.474;13.304;2023-12-29T01:36:59;10.77;;;10.00;;
31450;SDS011;18070;52.474;13.304;2023-12-29T01:39:25;11.65;;;10.55;;
31450;SDS011;18070;52.474;13.304;2023-12-29T01:41:51;11.23;;;10.48;;
31450;SDS011;18070;52.474;13.304;2023-12-29T01:44:18;17.60;;;16.27;;
31450;SDS011;18070;52.474;13.304;2023-12-29T01:46:48;11.75;;;10.65;;
31450;SDS011;18070;52.474;13.304;2023-12-29T01:49:15;11.43;;;10.52;;
31450;SDS011;18070;52.474;13.304;2023-12-29T01:51:44;10.40;;;9.65;;
31450;SDS011;18070;52.474;13.304;2023-12-29T01:54:12;11.43;;;10.63;;
31450;SDS011;18070;52.474;13.304;2023-12-29T01:56:39;12.30;;;11.25;;
31450;SDS011;18070;52.474;13.304;2023-12-29T01:59:05;10.68;;;9.77;;
31450;SDS011;18070;52.474;13.304;2023-12-29T02:01:31;12.23;;;11.25;;
31450;SDS011;18070;52.474;13.304;2023-12-29T02:03:57;14.13;;;13.27;;
31450;SDS011;18070;52.474;13.304;2023-12-29T02:06:23;11.88;;;11.00;;
31450;SDS011;18070;52.474;13.304;2023-12-29T02:08:50;12.77;;;11.77;;
31450;SDS011;18070;52.474;13.304;2023-12-29T02:11:17;10.85;;;10.20;;
31450;SDS011;18070;52.474;13.304;2023-12-29T02:13:43;12.35;;;11.20;;
31450;SDS011;18070;52.474;13.304;2023-12-29T02:16:12;11.23;;;10.32;;
31450;SDS011;18070;52.474;13.304;2023-12-29T02:18:41;13.00;;;12.20;;
31450;SDS011;18070;52.474;13.304;2023-12-29T02:21:10;11.20;;;10.48;;
31450;SDS011;18070;52.474;13.304;2023-12-29T02:23:36;10.65;;;9.82;;
31450;SDS011;18070;52.474;13.304;2023-12-29T02:26:02;11.27;;;10.48;;
31450;SDS011;18070;52.474;13.304;2023-12-29T02:28:31;12.85;;;11.90;;
31450;SDS011;18070;52.474;13.304;2023-12-29T02:34:02;11.43;;;10.50;;
31450;SDS011;18070;52.474;13.304;2023-12-29T02:36:31;12.60;;;11.85;;
31450;SDS011;18070;52.474;13.304;2023-12-29T02:38:57;12.68;;;11.48;;
31450;SDS011;18070;52.474;13.304;2023-12-29T02:41:23;12.40;;;11.50;;
31450;SDS011;18070;52.474;13.304;2023-12-29T02:43:49;11.50;;;10.60;;
31450;SDS011;18070;52.474;13.304;2023-12-29T02:46:16;11.90;;;11.07;;
31450;SDS011;18070;52.474;13.304;2023-12-29T02:48:42;12.57;;;11.48;;
31450;SDS011;18070;52.474;13.304;2023-12-29T02:51:08;12.25;;;11.40;;
31450;SDS011;18070;52.474;13.304;2023-12-29T02:53:34;12.15;;;11.13;;
31450;SDS011;18070;52.474;13.304;2023-12-29T02:56:00;13.00;;;11.93;;
31450;SDS011;18070;52.474;13.304;2023-12-29T02:58:26;13.68;;;12.77;;
31450;SDS011;18070;52.474;13.304;2023-12-29T03:00:52;12.57;;;11.68;;
31450;SDS011;18070;52.474;13.304;2023-12-29T03:03:18;14.63;;;13.70;;
31450;SDS011;18070;52.474;13.304;2023-12-29T03:05:44;11.68;;;10.65;;
31450;SDS011;18070;52.474;13.304;2023-12-29T03:08:10;12.07;;;11.20;;
31450;SDS011;18070;52.474;13.304;2023-12-29T03:10:36;11.25;;;10.52;;
31450;SDS011;18070;52.474;13.304;2023-12-29T03:13:02;14.05;;;13.15;;
31450;SDS011;18070;52.474;13.304;2023-12-29T03:15:29;12.38;;;11.52;;
31450;SDS011;18070;52.474;13.304;2023-12-29T03:17:55;12.00;;;11.07;;
31450;SDS011;18070;52.474;13.304;2023-12-29T03:20:21;12.27;;;11.43;;
31450;SDS011;18070;52.474;13.304;2023-12-29T03:22:47;12.60;;;11.85;;
31450;SDS011;18070;52.474;13.304;2023-12-29T03:25:13;12.77;;;12.05;;
31450;SDS011;18070;52.474;13.304;2023-12-29T03:27:39;12.00;;;11.35;;
31450;SDS011;18070;52.474;13.304;2023-12-29T03:30:05;14.77;;;13.70;;
31450;SDS011;18070;52.474;13.304;2023-12-29T03:32:31;11.70;;;10.90;;
31450;SDS011;18070;52.474;13.304;2023-12-29T03:34:57;10.38;;;9.57;;
31450;SDS011;18070;52.474;13.304;2023-12-29T03:37:23;14.25;;;13.38;;
31450;SDS011;18070;52.474;13.304;2023-12-29T03:39:49;15.35;;;14.38;;
31450;SDS011;18070;52.474;13.304;2023-12-29T03:42:15;10.68;;;9.85;;
31450;SDS011;18070;52.474;13.304;2023-12-29T03:44:41;11.52;;;10.77;;
31450;SDS011;18070;52.474;13.304;2023-12-29T03:47:09;11.43;;;10.80;;
31450;SDS011;18070;52.474;13.304;2023-12-29T03:49:35;11.98;;;11.23;;
31450;SDS011;18070;52.474;13.304;2023-12-29T03:52:01;11.32;;;10.43;;
31450;SDS011;18070;52.474;13.304;2023-12-29T03:54:27;10.95;;;10.05;;
31450;SDS011;18070;52.474;13.304;2023-12-29T03:56:53;9.38;;;8.73;;
31450;SDS011;18070;52.474;13.304;2023-12-29T03:59:19;13.20;;;12.20;;
31450;SDS011;18070;52.474;13.304;2023-12-29T04:01:45;11.23;;;10.50;;
31450;SDS011;18070;52.474;13.304;2023-12-29T04:04:11;9.88;;;9.20;;
31450;SDS011;18070;52.474;13.304;2023-12-29T04:06:37;11.50;;;10.57;;
31450;SDS011;18070;52.474;13.304;2023-12-29T04:09:03;13.18;;;10.15;;
31450;SDS011;18070;52.474;13.304;2023-12-29T04:11:30;12.10;;;11.27;;
31450;SDS011;18070;52.474;13.304;2023-12-29T04:13:56;15.10;;;14.18;;
31450;SDS011;18070;52.474;13.304;2023-12-29T04:16:22;10.13;;;9.32;;
31450;SDS011;18070;52.474;13.304;2023-12-29T04:18:48;10.77;;;10.18;;
31450;SDS011;18070;52.474;13.304;2023-12-29T04:21:14;10.68;;;9.88;;
31450;SDS011;18070;52.474;13.304;2023-12-29T04:23:40;12.70;;;11.85;;
31450;SDS011;18070;52.474;13.304;2023-12-29T04:26:07;10.80;;;9.82;;
31450;SDS011;18070;52.474;13.304;2023-12-29T04:28:33;11.18;;;10.27;;
31450;SDS011;18070;52.474;13.304;2023-12-29T04:30:59;9.77;;;9.07;;
31450;SDS011;18070;52.474;13.304;2023-12-29T04:33:25;10.95;;;10.23;;
31450;SDS011;18070;52.474;13.304;2023-12-29T04:35:51;10.45;;;9.60;;
31450;SDS011;18070;52.474;13.304;2023-12-29T04:38:17;11.15;;;10.40;;
31450;SDS011;18070;52.474;13.304;2023-12-29T04:40:45;10.70;;;10.15;;
31450;SDS011;18070;52.474;13.304;2023-12-29T04:43:12;10.85;;;10.00;;
31450;SDS011;18070;52.474;13.304;2023-12-29T04:45:38;10.82;;;10.02;;
31450;SDS011;18070;52.474;13.304;2023-12-29T04:48:04;11.02;;;10.15;;
31450;SDS011;18070;52.474;13.304;2023-12-29T04:50:30;11.32;;;10.68;;
31450;SDS011;18070;52.474;13.304;2023-12-29T04:52:56;11.73;;;10.63;;
31450;SDS011;18070;52.474;13.304;2023-12-29T04:55:22;11.07;;;10.27;;
31450;SDS011;18070;52.474;13.304;2023-12-29T04:57:48;17.40;;;15.90;;
31450;SDS011;18070;52.474;13.304;2023-12-29T05:00:14;11.40;;;10.70;;
31450;SDS011;18070;52.474;13.304;2023-12-29T05:02:40;13.88;;;12.88;;
31450;SDS011;18070;52.474;13.304;2023-12-29T05:05:06;14.65;;;13.73;;
31450;SDS011;18070;52.474;13.304;2023-12-29T05:07:32;11.48;;;10.77;;
31450;SDS011;18070;52.474;13.304;2023-12-29T05:09:58;10.77;;;10.07;;
31450;SDS011;18070;52.474;13.304;2023-12-29T05:12:24;12.02;;;11.40;;
31450;SDS011;18070;52.474;13.304;2023-12-29T05:14:50;12.05;;;11.32;;
31450;SDS011;18070;52.474;13.304;2023-12-29T05:17:16;12.30;;;11.63;;
31450;SDS011;18070;52.474;13.304;2023-12-29T05:19:42;12.38;;;11.45;;
31450;SDS011;18070;52.474;13.304;2023-12-29T05:22:08;15.73;;;14.73;;
31450;SDS011;18070;52.474;13.304;2023-12-29T05:24:40;14.80;;;13.88;;
31450;SDS011;18070;52.474;13.304;2023-12-29T05:27:06;21.95;;;20.70;;
31450;SDS011;18070;52.474;13.304;2023-12-29T05:29:32;14.20;;;13.50;;
31450;SDS011;18070;52.474;13.304;2023-12-29T05:31:58;12.98;;;12.32;;
31450;SDS011;18070;52.474;13.304;2023-12-29T05:34:24;12.05;;;11.00;;
31450;SDS011;18070;52.474;13.304;2023-12-29T05:36:50;13.40;;;12.65;;
31450;SDS011;18070;52.474;13.304;2023-12-29T05:39:16;11.93;;;11.23;;
31450;SDS011;18070;52.474;13.304;2023-12-29T05:41:42;11.80;;;11.07;;
31450;SDS011;18070;52.474;13.304;2023-12-29T05:44:08;12.77;;;11.88;;
31450;SDS011;18070;52.474;13.304;2023-12-29T05:46:34;11.32;;;10.68;;
31450;SDS011;18070;52.474;13.304;2023-12-29T05:49:00;9.93;;;9.40;;
31450;SDS011;18070;52.474;13.304;2023-12-29T05:51:26;10.48;;;9.57;;
31450;SDS011;18070;52.474;13.304;2023-12-29T05:53:52;9.45;;;8.95;;
31450;SDS011;18070;52.474;13.304;2023-12-29T05:56:18;10.85;;;10.18;;
31450;SDS011;18070;52.474;13.304;2023-12-29T05:58:44;10.65;;;9.63;;
31450;SDS011;18070;52.474;13.304;2023-12-29T06:01:10;9.60;;;8.70;;
31450;SDS011;18070;52.474;13.304;2023-12-29T06:03:37;12.13;;;11.45;;
31450;SDS011;18070;52.474;13.304;2023-12-29T06:06:03;11.93;;;11.00;;
31450;SDS011;18070;52.474;13.304;2023-12-29T06:08:29;19.98;;;18.90;;
31450;SDS011;18070;52.474;13.304;2023-12-29T06:10:55;8.82;;;8.13;;
31450;SDS011;18070;52.474;13.304;2023-12-29T06:13:21;7.95;;;7.53;;
31450;SDS011;18070;52.474;13.304;2023-12-29T06:15:48;9.30;;;8.77;;
31450;SDS011;18070;52.474;13.304;2023-12-29T06:18:14;8.05;;;7.45;;
31450;SDS011;18070;52.474;13.304;2023-12-29T06:20:40;10.73;;;10.13;;
31450;SDS011;18070;52.474;13.304;2023-12-29T06:23:06;8.60;;;8.02;;
31450;SDS011;18070;52.474;13.304;2023-12-29T06:25:32;9.05;;;8.50;;
31450;SDS011;18070;52.474;13.304;2023-12-29T06:27:59;8.13;;;7.32;;
31450;SDS011;18070;52.474;13.304;2023-12-29T06:30:25;9.73;;;9.13;;
31450;SDS011;18070;52.474;13.304;2023-12-29T06:32:51;9.52;;;9.02;;
31450;SDS011;18070;52.474;13.304;2023-12-29T06:35:17;13.75;;;12.82;;
31450;SDS011;18070;52.474;13.304;2023-12-29T06:37:43;17.65;;;16.40;;
31450;SDS011;18070;52.474;13.304;2023-12-29T06:40:09;10.45;;;9.70;;
31450;SDS011;18070;52.474;13.304;2023-12-29T06:42:35;8.85;;;8.43;;
31450;SDS011;18070;52.474;13.304;2023-12-29T06:45:01;9.45;;;8.68;;
31450;SDS011;18070;52.474;13.304;2023-12-29T06:47:27;12.55;;;9.02;;
31450;SDS011;18070;52.474;13.304;2023-12-29T06:49:53;8.50;;;7.88;;
31450;SDS011;18070;52.474;13.304;2023-12-29T06:52:19;9.07;;;8.60;;
31450;SDS011;18070;52.474;13.304;2023-12-29T06:54:45;9.48;;;8.77;;
31450;SDS011;18070;52.474;13.304;2023-12-29T06:57:11;11.80;;;10.90;;
31450;SDS011;18070;52.474;13.304;2023-12-29T06:59:39;9.75;;;9.10;;
31450;SDS011;18070;52.474;13.304;2023-12-29T07:02:06;9.93;;;9.13;;
31450;SDS011;18070;52.474;13.304;2023-12-29T07:04:32;9.50;;;8.85;;
31450;SDS011;18070;52.474;13.304;2023-12-29T07:06:59;11.40;;;10.73;;
31450;SDS011;18070;52.474;13.304;2023-12-29T07:09:27;16.02;;;15.10;;
31450;SDS011;18070;52.474;13.304;2023-12-29T07:11:53;9.63;;;8.93;;
31450;SDS011;18070;52.474;13.304;2023-12-29T07:14:19;10.02;;;9.13;;
31450;SDS011;18070;52.474;13.304;2023-12-29T07:16:45;10.50;;;9.70;;
31450;SDS011;18070;52.474;13.304;2023-12-29T07:19:11;18.05;;;16.90;;
31450;SDS011;18070;52.474;13.304;2023-12-29T07:21:37;9.73;;;9.13;;
31450;SDS011;18070;52.474;13.304;2023-12-29T07:24:03;12.75;;;8.93;;
31450;SDS011;18070;52.474;13.304;2023-12-29T07:26:29;11.48;;;10.65;;
31450;SDS011;18070;52.474;13.304;2023-12-29T07:28:55;11.02;;;10.13;;
31450;SDS011;18070;52.474;13.304;2023-12-29T07:31:22;13.10;;;12.10;;
31450;SDS011;18070;52.474;13.304;2023-12-29T07:33:48;11.88;;;11.20;;
31450;SDS011;18070;52.474;13.304;2023-12-29T07:36:14;12.57;;;11.57;;
31450;SDS011;18070;52.474;13.304;2023-12-29T07:38:40;11.07;;;10.07;;
31450;SDS011;18070;52.474;13.304;2023-12-29T07:41:07;9.90;;;9.10;;
31450;SDS011;18070;52.474;13.304;2023-12-29T07:43:34;10.20;;;9.65;;
31450;SDS011;18070;52.474;13.304;2023-12-29T07:46:01;19.88;;;18.38;;
31450;SDS011;18070;52.474;13.304;2023-12-29T07:48:27;9.90;;;9.30;;
31450;SDS011;18070;52.474;13.304;2023-12-29T07:50:53;10.88;;;9.98;;
31450;SDS011;18070;52.474;13.304;2023-12-29T07:53:19;8.65;;;8.15;;
31450;SDS011;18070;52.474;13.304;2023-12-29T07:55:45;12.82;;;10.52;;
31450;SDS011;18070;52.474;13.304;2023-12-29T07:58:14;10.73;;;10.00;;
31450;SDS011;18070;52.474;13.304;2023-12-29T08:00:40;13.25;;;12.13;;
31450;SDS011;18070;52.474;13.304;2023-12-29T08:03:06;11.15;;;10.30;;
31450;SDS011;18070;52.474;13.304;2023-12-29T08:05:32;10.73;;;9.88;;
31450;SDS011;18070;52.474;13.304;2023-12-29T08:07:58;9.45;;;8.85;;
31450;SDS011;18070;52.474;13.304;2023-12-29T08:10:25;10.13;;;9.43;;
31450;SDS011;18070;52.474;13.304;2023-12-29T08:12:51;12.13;;;10.20;;
31450;SDS011;18070;52.474;13.304;2023-12-29T08:15:17;9.75;;;8.85;;
31450;SDS011;18070;52.474;13.304;2023-12-29T08:17:43;9.13;;;8.43;;
31450;SDS011;18070;52.474;13.304;2023-12-29T08:20:09;10.82;;;10.02;;
31450;SDS011;18070;52.474;13.304;2023-12-29T08:22:35;11.18;;;10.48;;
31450;SDS011;18070;52.474;13.304;2023-12-29T08:25:02;11.63;;;10.85;;
31450;SDS011;18070;52.474;13.304;2023-12-29T08:27:28;11.25;;;10.10;;
31450;SDS011;18070;52.474;13.304;2023-12-29T08:29:54;10.93;;;10.10;;
31450;SDS011;18070;52.474;13.304;2023-12-29T08:32:20;12.02;;;11.25;;
31450;SDS011;18070;52.474;13.304;2023-12-29T08:34:47;11.27;;;10.55;;
31450;SDS011;18070;52.474;13.304;2023-12-29T08:37:13;13.25;;;12.27;;
31450;SDS011;18070;52.474;13.304;2023-12-29T08:39:45;13.93;;;13.13;;
31450;SDS011;18070;52.474;13.304;2023-12-29T08:42:11;10.85;;;10.20;;
31450;SDS011;18070;52.474;13.304;2023-12-29T08:44:37;12.50;;;11.45;;
31450;SDS011;18070;52.474;13.304;2023-12-29T08:47:03;12.32;;;11.43;;
31450;SDS011;18070;52.474;13.304;2023-12-29T08:49:33;13.57;;;12.77;;
31450;SDS011;18070;52.474;13.304;2023-12-29T08:51:59;15.52;;;14.43;;
31450;SDS011;18070;52.474;13.304;2023-12-29T08:54:25;16.98;;;15.40;;
31450;SDS011;18070;52.474;13.304;2023-12-29T08:56:52;13.88;;;12.88;;
31450;SDS011;18070;52.474;13.304;2023-12-29T08:59:18;15.05;;;13.95;;
31450;SDS011;18070;52.474;13.304;2023-12-29T09:01:44;14.88;;;13.80;;
31450;SDS011;18070;52.474;13.304;2023-12-29T09:04:10;14.48;;;13.13;;
31450;SDS011;18070;52.474;13.304;2023-12-29T09:06:36;13.82;;;12.75;;
31450;SDS011;18070;52.474;13.304;2023-12-29T09:09:02;27.75;;;26.17;;
31450;SDS011;18070;52.474;13.304;2023-12-29T09:11:28;16.05;;;14.65;;
31450;SDS011;18070;52.474;13.304;2023-12-29T09:13:54;14.30;;;13.07;;
31450;SDS011;18070;52.474;13.304;2023-12-29T09:16:20;14.48;;;13.30;;
31450;SDS011;18070;52.474;13.304;2023-12-29T09:18:46;12.75;;;11.63;;
31450;SDS011;18070;52.474;13.304;2023-12-29T09:21:12;11.45;;;10.50;;
31450;SDS011;18070;52.474;13.304;2023-12-29T09:23:38;10.60;;;9.75;;
31450;SDS011;18070;52.474;13.304;2023-12-29T09:26:05;11.52;;;10.50;;
31450;SDS011;18070;52.474;13.304;2023-12-29T09:28:32;9.80;;;8.95;;
31450;SDS011;18070;52.474;13.304;2023-12-29T09:30:58;12.82;;;11.63;;
31450;SDS011;18070;52.474;13.304;2023-12-29T09:33:25;12.68;;;11.85;;
31450;SDS011;18070;52.474;13.304;2023-12-29T09:35:51;11.23;;;10.25;;
31450;SDS011;18070;52.474;13.304;2023-12-29T09:38:18;11.45;;;10.40;;
31450;SDS011;18070;52.474;13.304;2023-12-29T09:40:44;12.48;;;11.00;;
31450;SDS011;18070;52.474;13.304;2023-12-29T09:43:10;13.80;;;12.50;;
31450;SDS011;18070;52.474;13.304;2023-12-29T09:45:37;12.65;;;11.60;;
31450;SDS011;18070;52.474;13.304;2023-12-29T09:48:05;11.13;;;10.00;;
31450;SDS011;18070;52.474;13.304;2023-12-29T09:50:32;12.82;;;11.73;;
31450;SDS011;18070;52.474;13.304;2023-12-29T09:52:58;11.38;;;10.27;;
31450;SDS011;18070;52.474;13.304;2023-12-29T09:55:25;12.98;;;11.73;;
31450;SDS011;18070;52.474;13.304;2023-12-29T09:57:51;11.63;;;10.48;;
31450;SDS011;18070;52.474;13.304;2023-12-29T10:00:18;12.95;;;11.75;;
31450;SDS011;18070;52.474;13.304;2023-12-29T10:02:46;11.57;;;10.68;;
31450;SDS011;18070;52.474;13.304;2023-12-29T10:05:14;13.45;;;12.45;;
31450;SDS011;18070;52.474;13.304;2023-12-29T10:07:41;12.40;;;11.45;;
31450;SDS011;18070;52.474;13.304;2023-12-29T10:10:08;11.75;;;10.25;;
31450;SDS011;18070;52.474;13.304;2023-12-29T10:12:39;10.98;;;10.07;;
31450;SDS011;18070;52.474;13.304;2023-12-29T10:15:07;11.05;;;10.07;;
31450;SDS011;18070;52.474;13.304;2023-12-29T10:18:21;10.77;;;9.90;;
31450;SDS011;18070;52.474;13.304;2023-12-29T10:25:33;14.85;;;10.00;;
31450;SDS011;18070;52.474;13.304;2023-12-29T10:28:00;10.40;;;9.52;;
31450;SDS011;18070;52.474;13.304;2023-12-29T10:30:26;9.75;;;8.57;;
31450;SDS011;18070;52.474;13.304;2023-12-29T10:32:52;8.88;;;8.27;;
31450;SDS011;18070;52.474;13.304;2023-12-29T10:35:18;8.52;;;7.80;;
31450;SDS011;18070;52.474;13.304;2023-12-29T10:37:44;8.48;;;7.75;;
31450;SDS011;18070;52.474;13.304;2023-12-29T10:40:17;8.60;;;7.75;;
31450;SDS011;18070;52.474;13.304;2023-12-29T10:42:53;9.18;;;7.68;;
31450;SDS011;18070;52.474;13.304;2023-12-29T10:45:19;9.05;;;8.02;;
31450;SDS011;18070;52.474;13.304;2023-12-29T10:47:45;11.07;;;7.35;;
31450;SDS011;18070;52.474;13.304;2023-12-29T10:50:12;9.35;;;8.55;;
31450;SDS011;18070;52.474;13.304;2023-12-29T10:52:38;10.57;;;7.82;;
31450;SDS011;18070;52.474;13.304;2023-12-29T10:55:09;9.25;;;7.97;;
31450;SDS011;18070;52.474;13.304;2023-12-29T10:57:36;8.57;;;7.68;;
31450;SDS011;18070;52.474;13.304;2023-12-29T11:00:02;8.43;;;7.82;;
31450;SDS011;18070;52.474;13.304;2023-12-29T11:02:29;8.93;;;8.18;;
31450;SDS011;18070;52.474;13.304;2023-12-29T11:05:08;9.23;;;7.43;;
31450;SDS011;18070;52.474;13.304;2023-12-29T11:07:36;13.10;;;11.95;;
31450;SDS011;18070;52.474;13.304;2023-12-29T11:10:03;8.25;;;6.40;;
31450;SDS011;18070;52.474;13.304;2023-12-29T11:12:30;8.15;;;7.47;;
31450;SDS011;18070;52.474;13.304;2023-12-29T11:14:56;9.35;;;7.75;;
31450;SDS011;18070;52.474;13.304;2023-12-29T11:17:22;8.73;;;7.07;;
31450;SDS011;18070;52.474;13.304;2023-12-29T11:19:48;11.18;;;8.15;;
31450;SDS011;18070;52.474;13.304;2023-12-29T11:22:16;8.38;;;7.10;;
31450;SDS011;18070;52.474;13.304;2023-12-29T11:24:45;9.23;;;7.38;;
31450;SDS011;18070;52.474;13.304;2023-12-29T11:27:11;10.25;;;7.95;;
31450;SDS011;18070;52.474;13.304;2023-12-29T11:29:38;9.95;;;7.57;;
31450;SDS011;18070;52.474;13.304;2023-12-29T11:32:06;7.55;;;6.85;;
31450;SDS011;18070;52.474;13.304;2023-12-29T11:34:41;11.40;;;9.30;;
31450;SDS011;18070;52.474;13.304;2023-12-29T11:37:15;11.35;;;10.38;;
31450;SDS011;18070;52.474;13.304;2023-12-29T11:39:52;12.43;;;9.68;;
31450;SDS011;18070;52.474;13.304;2023-12-29T11:42:21;8.27;;;7.70;;
31450;SDS011;18070;52.474;13.304;2023-12-29T11:44:48;7.80;;;7.15;;
31450;SDS011;18070;52.474;13.304;2023-12-29T11:47:34;8.98;;;8.13;;
31450;SDS011;18070;52.474;13.304;2023-12-29T11:50:01;8.32;;;7.53;;
31450;SDS011;18070;52.474;13.304;2023-12-29T11:52:37;9.85;;;8.88;;
31450;SDS011;18070;52.474;13.304;2023-12-29T11:55:10;8.10;;;7.35;;
31450;SDS011;18070;52.474;13.304;2023-12-29T11:57:36;7.97;;;7.38;;
31450;SDS011;18070;52.474;13.304;2023-12-29T12:00:04;8.68;;;7.40;;
31450;SDS011;18070;52.474;13.304;2023-12-29T12:02:30;13.13;;;12.10;;
31450;SDS011;18070;52.474;13.304;2023-12-29T12:04:57;9.02;;;8.15;;
31450;SDS011;18070;52.474;13.304;2023-12-29T12:09:52;9.15;;;8.25;;
31450;SDS011;18070;52.474;13.304;2023-12-29T12:12:42;8.93;;;7.85;;
31450;SDS011;18070;52.474;13.304;2023-12-29T12:18:02;13.52;;;8.40;;
31450;SDS011;18070;52.474;13.304;2023-12-29T12:20:30;9.80;;;8.80;;
31450;SDS011;18070;52.474;13.304;2023-12-29T12:23:00;9.02;;;8.40;;
31450;SDS011;18070;52.474;13.304;2023-12-29T12:25:27;12.40;;;11.38;;
31450;SDS011;18070;52.474;13.304;2023-12-29T12:27:54;14.93;;;12.00;;
31450;SDS011;18070;52.474;13.304;2023-12-29T12:30:20;16.60;;;15.55;;
31450;SDS011;18070;52.474;13.304;2023-12-29T12:32:46;15.75;;;14.63;;
31450;SDS011;18070;52.474;13.304;2023-12-29T12:35:13;14.65;;;13.65;;
31450;SDS011;18070;52.474;13.304;2023-12-29T12:37:40;12.10;;;11.02;;
31450;SDS011;18070;52.474;13.304;2023-12-29T12:40:07;13.40;;;12.30;;
31450;SDS011;18070;52.474;13.304;2023-12-29T12:42:34;11.55;;;10.52;;
31450;SDS011;18070;52.474;13.304;2023-12-29T12:45:06;12.25;;;11.18;;
31450;SDS011;18070;52.474;13.304;2023-12-29T12:47:45;12.30;;;11.38;;
31450;SDS011;18070;52.474;13.304;2023-12-29T12:50:11;15.38;;;14.15;;
31450;SDS011;18070;52.474;13.304;2023-12-29T12:52:38;16.60;;;15.48;;
31450;SDS011;18070;52.474;13.304;2023-12-29T12:55:05;19.30;;;17.67;;
31450;SDS011;18070;52.474;13.304;2023-12-29T12:57:31;18.40;;;16.80;;
31450;SDS011;18070;52.474;13.304;2023-12-29T12:59:58;22.98;;;21.42;;
31450;SDS011;18070;52.474;13.304;2023-12-29T13:02:25;22.83;;;21.27;;
31450;SDS011;18070;52.474;13.304;2023-12-29T13:04:51;29.55;;;27.08;;
31450;SDS011;18070;52.474;13.304;2023-12-29T13:07:18;25.80;;;23.58;;
31450;SDS011;18070;52.474;13.304;2023-12-29T13:09:45;24.67;;;22.70;;
31450;SDS011;18070;52.474;13.304;2023-12-29T13:12:12;26.42;;;24.60;;
31450;SDS011;18070;52.474;13.304;2023-12-29T13:14:41;24.67;;;23.05;;
31450;SDS011;18070;52.474;13.304;2023-12-29T13:17:08;21.67;;;20.42;;
31450;SDS011;18070;52.474;13.304;2023-12-29T13:19:38;25.15;;;23.48;;
31450;SDS011;18070;52.474;13.304;2023-12-29T13:22:06;24.13;;;22.38;;
31450;SDS011;18070;52.474;13.304;2023-12-29T13:24:32;21.40;;;20.25;;
31450;SDS011;18070;52.474;13.304;2023-12-29T13:27:05;32.72;;;30.83;;
31450;SDS011;18070;52.474;13.304;2023-12-29T13:29:32;21.35;;;20.00;;
31450;SDS011;18070;52.474;13.304;2023-12-29T13:32:00;23.45;;;22.00;;
31450;SDS011;18070;52.474;13.304;2023-12-29T13:34:29;22.27;;;20.65;;
31450;SDS011;18070;52.474;13.304;2023-12-29T13:37:01;20.90;;;19.30;;
31450;SDS011;18070;52.474;13.304;2023-12-29T13:39:42;31.48;;;29.00;;
31450;SDS011;18070;52.474;13.304;2023-12-29T13:42:09;18.05;;;16.50;;
31450;SDS011;18070;52.474;13.304;2023-12-29T13:44:37;16.05;;;14.75;;
31450;SDS011;18070;52.474;13.304;2023-12-29T13:47:04;30.63;;;28.63;;
31450;SDS011;18070;52.474;13.304;2023-12-29T13:49:31;27.38;;;25.75;;
31450;SDS011;18070;52.474;13.304;2023-12-29T13:52:01;22.20;;;20.95;;
31450;SDS011;18070;52.474;13.304;2023-12-29T13:54:28;29.70;;;27.92;;
31450;SDS011;18070;52.474;13.304;2023-12-29T13:56:54;23.33;;;21.88;;
31450;SDS011;18070;52.474;13.304;2023-12-29T13:59:30;22.38;;;21.17;;
31450;SDS011;18070;52.474;13.304;2023-12-29T14:01:58;20.52;;;19.40;;
31450;SDS011;18070;52.474;13.304;2023-12-29T14:04:25;24.25;;;22.75;;
31450;SDS011;18070;52.474;13.304;2023-12-29T14:06:55;36.85;;;34.67;;
31450;SDS011;18070;52.474;13.304;2023-12-29T14:09:25;23.75;;;21.98;;
31450;SDS011;18070;52.474;13.304;2023-12-29T14:11:51;18.92;;;17.88;;
31450;SDS011;18070;52.474;13.304;2023-12-29T14:14:21;23.98;;;22.23;;
31450;SDS011;18070;52.474;13.304;2023-12-29T14:16:47;25.50;;;24.17;;
31450;SDS011;18070;52.474;13.304;2023-12-29T14:19:13;20.55;;;19.17;;
31450;SDS011;18070;52.474;13.304;2023-12-29T14:21:39;24.05;;;22.67;;
31450;SDS011;18070;52.474;13.304;2023-12-29T14:26:32;42.15;;;39.95;;
31450;SDS011;18070;52.474;13.304;2023-12-29T14:31:28;20.83;;;19.73;;